createdAt,value
2022-10-11T00:00:48.692Z,2.20
2022-10-11T00:03:17.951Z,2.27
2022-10-11T00:05:45.594Z,2.53
2022-10-11T00:08:13.414Z,2.43
2022-10-11T00:10:41.554Z,4.13
2022-10-11T00:13:09.937Z,2.27
2022-10-11T00:15:40.115Z,2.17
2022-10-11T00:18:07.826Z,2.03
2022-10-11T00:20:36.846Z,2.60
2022-10-11T00:23:04.439Z,1.90
2022-10-11T00:25:32.119Z,2.20
2022-10-11T00:27:59.761Z,2.10
2022-10-11T00:30:27.502Z,2.27
2022-10-11T00:32:55.218Z,2.40
2022-10-11T00:35:22.813Z,2.40
2022-10-11T00:37:51.804Z,2.03
2022-10-11T00:40:21.918Z,2.37
2022-10-11T00:42:49.663Z,2.43
2022-10-11T00:45:53.035Z,2.20
2022-10-11T00:48:27.466Z,2.97
2022-10-11T00:50:57.802Z,2.50
2022-10-11T00:53:30.077Z,2.80
2022-10-11T00:56:02.778Z,2.17
2022-10-11T00:58:31.433Z,2.30
2022-10-11T01:00:59.497Z,2.73
2022-10-11T01:03:30.121Z,2.17
2022-10-11T01:05:57.813Z,2.80
2022-10-11T01:08:28.031Z,2.90
2022-10-11T01:10:56.885Z,2.20
2022-10-11T01:13:37.241Z,2.13
2022-10-11T01:16:12.422Z,1.87
2022-10-11T01:18:49.733Z,2.80
2022-10-11T01:21:32.567Z,2.77
2022-10-11T01:24:31.156Z,2.20
2022-10-11T01:27:31.512Z,2.20
2022-10-11T01:30:20.385Z,2.20
2022-10-11T01:32:57.006Z,2.43
2022-10-11T01:35:29.834Z,2.73
2022-10-11T01:38:02.703Z,2.47
2022-10-11T01:40:34.809Z,2.30
2022-10-11T01:43:04.625Z,2.60
2022-10-11T01:45:33.865Z,2.60
2022-10-11T01:48:09.058Z,2.37
2022-10-11T01:50:42.306Z,2.13
2022-10-11T01:53:29.753Z,2.30
2022-10-11T01:56:06.031Z,3.07
2022-10-11T01:58:45.383Z,3.60
2022-10-11T02:01:24.959Z,2.63
2022-10-11T02:04:03.297Z,2.33
2022-10-11T02:06:37.014Z,2.60
2022-10-11T02:09:15.830Z,3.20
2022-10-11T02:11:44.019Z,2.33
2022-10-11T02:14:15.587Z,2.53
2022-10-11T02:16:46.093Z,2.83
2022-10-11T02:19:20.616Z,2.40
2022-10-11T02:21:54.798Z,2.50
2022-10-11T02:24:27.199Z,2.33
2022-10-11T02:26:57.935Z,4.07
2022-10-11T02:29:28.914Z,5.33
2022-10-11T02:31:59.609Z,3.83
2022-10-11T02:34:32.926Z,3.30
2022-10-11T02:37:05.399Z,2.60
2022-10-11T02:39:39.452Z,2.23
2022-10-11T02:42:14.490Z,2.43
2022-10-11T02:44:45.884Z,2.27
2022-10-11T02:47:14.820Z,2.60
2022-10-11T02:49:43.865Z,2.40
2022-10-11T02:52:11.599Z,2.53
2022-10-11T02:54:39.222Z,2.57
2022-10-11T02:57:07.044Z,2.53
2022-10-11T02:59:34.663Z,3.17
2022-10-11T03:02:02.335Z,2.90
2022-10-11T03:04:30.015Z,2.50
2022-10-11T03:06:59.123Z,2.33
2022-10-11T03:09:26.845Z,2.53
2022-10-11T03:11:54.797Z,2.70
2022-10-11T03:14:22.407Z,3.77
2022-10-11T03:16:51.573Z,3.50
2022-10-11T03:19:19.629Z,2.50
2022-10-11T03:21:47.401Z,2.67
2022-10-11T03:24:16.417Z,3.33
2022-10-11T03:26:44.064Z,3.30
2022-10-11T03:29:11.729Z,3.83
2022-10-11T03:31:39.469Z,3.13
2022-10-11T03:34:07.633Z,2.30
2022-10-11T03:36:35.354Z,3.33
2022-10-11T03:39:03.533Z,2.60
2022-10-11T03:41:33.174Z,3.07
2022-10-11T03:44:00.866Z,2.67
2022-10-11T03:46:28.980Z,3.70
2022-10-11T03:48:57.051Z,2.47
2022-10-11T03:51:24.934Z,3.20
2022-10-11T03:53:52.550Z,3.53
2022-10-11T03:56:20.318Z,3.20
2022-10-11T03:58:49.304Z,3.20
2022-10-11T04:01:17.088Z,3.00
2022-10-11T04:03:44.855Z,3.23
2022-10-11T04:06:12.778Z,3.87
2022-10-11T04:08:40.435Z,2.80
2022-10-11T04:11:08.079Z,3.70
2022-10-11T04:13:35.732Z,3.87
2022-10-11T04:16:05.790Z,3.53
2022-10-11T04:18:33.755Z,3.40
2022-10-11T04:21:01.365Z,4.40
2022-10-11T04:23:29.075Z,3.13
2022-10-11T04:25:57.076Z,3.73
2022-10-11T04:28:24.879Z,3.70
2022-10-11T04:30:55.456Z,3.20
2022-10-11T04:33:24.514Z,4.10
2022-10-11T04:35:55.563Z,3.97
2022-10-11T04:38:23.704Z,3.30
2022-10-11T04:40:51.355Z,3.23
2022-10-11T04:43:19.364Z,3.13
2022-10-11T04:45:47.329Z,3.33
2022-10-11T04:48:15.396Z,3.17
2022-10-11T04:50:45.797Z,3.80
2022-10-11T04:53:13.459Z,3.70
2022-10-11T04:55:41.093Z,4.00
2022-10-11T04:58:08.790Z,3.57
2022-10-11T05:00:36.713Z,4.33
2022-10-11T05:03:05.145Z,3.80
2022-10-11T05:05:32.809Z,4.10
2022-10-11T05:08:01.821Z,4.20
2022-10-11T05:10:29.623Z,3.43
2022-10-11T05:12:57.550Z,3.70
2022-10-11T05:15:25.232Z,3.40
2022-10-11T05:17:52.917Z,4.03
2022-10-11T05:20:20.537Z,4.47
2022-10-11T05:22:48.231Z,3.87
2022-10-11T05:25:18.135Z,3.80
2022-10-11T05:27:45.815Z,4.07
2022-10-11T05:30:13.790Z,4.70
2022-10-11T05:32:41.440Z,4.13
2022-10-11T05:35:10.692Z,4.20
2022-10-11T05:37:38.492Z,4.53
2022-10-11T05:40:07.351Z,3.87
2022-10-11T05:42:36.431Z,3.97
2022-10-11T05:45:04.376Z,4.43
2022-10-11T05:47:32.278Z,4.37
2022-10-11T05:49:59.964Z,4.37
2022-10-11T05:52:27.699Z,4.73
2022-10-11T05:54:55.340Z,4.47
2022-10-11T05:57:23.150Z,4.60
2022-10-11T05:59:52.261Z,4.43
2022-10-11T06:02:19.946Z,4.47
2022-10-11T06:04:47.812Z,4.07
2022-10-11T06:07:15.473Z,4.97
2022-10-11T06:09:43.110Z,4.90
2022-10-11T06:12:10.710Z,4.70
2022-10-11T06:14:38.533Z,6.73
2022-10-11T06:17:07.594Z,5.30
2022-10-11T06:19:35.382Z,4.23
2022-10-11T06:22:03.146Z,4.93
2022-10-11T06:24:30.798Z,5.27
2022-10-11T06:26:58.550Z,4.40
2022-10-11T06:29:26.318Z,4.90
2022-10-11T06:31:54.014Z,4.97
2022-10-11T06:34:23.238Z,3.77
2022-10-11T06:36:50.905Z,4.80
2022-10-11T06:39:21.149Z,4.33
2022-10-11T06:41:48.997Z,4.73
2022-10-11T06:44:35.290Z,4.37
2022-10-11T06:47:02.982Z,4.80
2022-10-11T06:49:31.962Z,5.57
2022-10-11T06:51:59.610Z,4.67
2022-10-11T06:54:27.615Z,5.97
2022-10-11T06:56:55.233Z,4.93
2022-10-11T06:59:22.863Z,4.53
2022-10-11T07:01:50.510Z,4.30
2022-10-11T07:04:18.130Z,4.50
2022-10-11T07:06:47.109Z,4.67
2022-10-11T07:09:14.749Z,4.13
2022-10-11T07:11:42.430Z,3.60
2022-10-11T07:14:11.064Z,6.10
2022-10-11T07:16:39.182Z,5.33
2022-10-11T07:19:08.875Z,5.23
2022-10-11T07:21:37.290Z,5.13
2022-10-11T07:24:07.303Z,5.50
2022-10-11T07:26:38.635Z,5.03
2022-10-11T07:29:07.771Z,3.93
2022-10-11T07:31:35.607Z,4.40
2022-10-11T07:34:03.200Z,4.10
2022-10-11T07:36:30.978Z,4.10
2022-10-11T07:38:58.656Z,5.00
2022-10-11T07:41:27.733Z,3.90
2022-10-11T07:43:55.681Z,4.27
2022-10-11T07:46:23.501Z,4.07
2022-10-11T07:48:51.326Z,4.80
2022-10-11T07:51:21.072Z,5.03
2022-10-11T07:53:50.246Z,4.73
2022-10-11T07:56:20.117Z,4.47
2022-10-11T07:58:52.421Z,4.10
2022-10-11T08:01:21.179Z,5.80
2022-10-11T08:03:49.733Z,3.90
2022-10-11T08:06:19.931Z,3.80
2022-10-11T08:08:48.206Z,4.23
2022-10-11T08:11:21.894Z,4.40
2022-10-11T08:13:51.258Z,3.40
2022-10-11T08:16:19.462Z,3.90
2022-10-11T08:18:47.221Z,3.33
2022-10-11T08:21:17.432Z,4.63
2022-10-11T08:23:45.150Z,4.13
2022-10-11T08:26:12.938Z,4.13
2022-10-11T08:28:41.025Z,3.93
2022-10-11T08:31:13.665Z,4.40
2022-10-11T08:33:41.549Z,3.57
2022-10-11T08:36:10.586Z,3.50
2022-10-11T08:38:39.122Z,3.70
2022-10-11T08:41:23.108Z,3.60
2022-10-11T08:43:58.747Z,5.93
2022-10-11T08:46:31.929Z,3.13
2022-10-11T08:49:02.477Z,3.50
2022-10-11T08:51:35.019Z,3.20
2022-10-11T08:54:08.124Z,3.17
2022-10-11T08:56:38.736Z,3.17
2022-10-11T08:59:22.019Z,3.97
2022-10-11T09:02:00.501Z,3.20
2022-10-11T09:04:28.256Z,4.40
2022-10-11T09:07:05.174Z,2.77
2022-10-11T09:09:52.888Z,4.00
2022-10-11T09:12:34.260Z,3.33
2022-10-11T09:15:17.711Z,3.43
2022-10-11T09:17:59.161Z,2.70
2022-10-11T09:20:47.064Z,3.17
2022-10-11T09:23:30.311Z,2.53
2022-10-11T09:26:06.366Z,3.23
2022-10-11T09:28:48.443Z,3.93
2022-10-11T09:31:17.281Z,2.27
2022-10-11T09:33:49.388Z,2.77
2022-10-11T09:36:27.357Z,2.80
2022-10-11T09:39:06.656Z,3.67
2022-10-11T09:41:39.780Z,2.67
2022-10-11T09:44:08.258Z,3.27
2022-10-11T09:46:38.379Z,2.50
2022-10-11T09:49:13.199Z,3.50
2022-10-11T09:51:44.342Z,2.63
2022-10-11T09:54:12.058Z,2.63
2022-10-11T09:56:44.045Z,1.83
2022-10-11T09:59:26.759Z,2.77
2022-10-11T10:02:20.982Z,2.50
2022-10-11T10:05:02.942Z,2.70
2022-10-11T10:07:32.330Z,3.43
2022-10-11T10:10:00.361Z,2.60
2022-10-11T10:12:29.790Z,3.00
2022-10-11T10:15:07.217Z,3.00
2022-10-11T10:17:35.442Z,2.70
2022-10-11T10:20:06.294Z,2.17
2022-10-11T10:22:36.504Z,2.73
2022-10-11T10:25:08.007Z,2.97
2022-10-11T10:27:36.291Z,2.50
2022-10-11T10:30:14.361Z,3.47
2022-10-11T10:32:50.099Z,3.93
2022-10-11T10:35:31.183Z,2.13
2022-10-11T10:38:07.679Z,2.67
2022-10-11T10:40:41.134Z,3.17
2022-10-11T10:43:15.644Z,2.47
2022-10-11T10:46:17.723Z,3.00
2022-10-11T10:51:57.361Z,2.20
2022-10-11T10:54:38.433Z,2.07
2022-10-11T10:57:15.726Z,2.37
2022-10-11T10:59:54.964Z,2.13
2022-10-11T11:02:42.853Z,2.13
2022-10-11T11:05:22.109Z,2.17
2022-10-11T11:07:57.767Z,2.00
2022-10-11T11:10:31.573Z,2.50
2022-10-11T11:13:16.896Z,2.40
2022-10-11T11:15:50.486Z,2.07
2022-10-11T11:18:29.611Z,2.20
2022-10-11T11:21:12.712Z,1.67
2022-10-11T11:23:49.917Z,2.90
2022-10-11T11:26:26.559Z,2.70
2022-10-11T11:29:15.196Z,3.33
2022-10-11T11:32:06.360Z,3.83
2022-10-11T11:34:39.698Z,2.30
2022-10-11T11:37:16.263Z,2.70
2022-10-11T11:39:54.140Z,2.70
2022-10-11T11:42:27.663Z,2.73
2022-10-11T11:44:55.521Z,3.03
2022-10-11T11:47:27.775Z,4.50
2022-10-11T11:49:59.931Z,2.60
2022-10-11T11:52:31.839Z,3.63
2022-10-11T11:55:10.462Z,2.63
2022-10-11T11:57:57.715Z,2.67
2022-10-11T12:00:31.927Z,2.47
2022-10-11T12:03:03.289Z,2.27
2022-10-11T12:05:38.139Z,2.77
2022-10-11T12:08:10.844Z,3.30
2022-10-11T12:10:55.569Z,2.60
2022-10-11T12:13:32.132Z,2.43
2022-10-11T12:16:10.865Z,2.47
2022-10-11T12:18:53.763Z,2.53
2022-10-11T12:21:27.984Z,2.80
2022-10-11T12:23:58.119Z,2.33
2022-10-11T12:26:51.176Z,2.37
2022-10-11T12:29:47.042Z,2.23
2022-10-11T12:32:54.465Z,2.33
2022-10-11T12:35:42.479Z,2.20
2022-10-11T12:38:33.361Z,2.30
2022-10-11T12:41:29.225Z,2.63
2022-10-11T12:44:21.409Z,4.10
2022-10-11T12:47:11.082Z,2.07
2022-10-11T12:49:51.089Z,2.27
2022-10-11T12:52:35.158Z,1.77
2022-10-11T12:55:14.371Z,2.13
2022-10-11T12:58:17.009Z,2.50
2022-10-11T13:01:22.903Z,2.90
2022-10-11T13:04:01.859Z,2.30
2022-10-11T13:06:33.747Z,2.83
2022-10-11T13:09:06.121Z,4.23
2022-10-11T13:11:36.696Z,2.80
2022-10-11T13:14:09.537Z,2.47
2022-10-11T13:16:52.464Z,3.03
2022-10-11T13:19:23.720Z,3.60
2022-10-11T13:22:00.084Z,3.13
2022-10-11T13:24:29.590Z,5.40
2022-10-11T13:26:58.148Z,4.67
2022-10-11T13:29:33.675Z,4.43
2022-10-11T13:32:06.104Z,3.27
2022-10-11T13:34:39.205Z,2.80
2022-10-11T13:37:08.361Z,2.80
2022-10-11T13:39:39.328Z,3.23
2022-10-11T13:42:09.818Z,2.57
2022-10-11T13:44:39.689Z,2.40
2022-10-11T13:47:14.250Z,2.07
2022-10-11T13:49:46.432Z,2.57
2022-10-11T13:52:23.986Z,2.40
2022-10-11T13:54:57.857Z,3.10
2022-10-11T13:57:35.675Z,2.13
2022-10-11T14:00:08.453Z,2.67
2022-10-11T14:02:38.955Z,3.13
2022-10-11T14:05:07.308Z,3.97
2022-10-11T14:07:38.617Z,2.50
2022-10-11T14:10:08.100Z,2.37
2022-10-11T14:12:40.477Z,2.37
2022-10-11T14:15:25.367Z,2.20
2022-10-11T14:17:54.514Z,2.40
2022-10-11T14:20:26.416Z,4.10
2022-10-11T14:22:57.253Z,2.47
2022-10-11T14:25:25.032Z,3.93
2022-10-11T14:27:54.297Z,2.80
2022-10-11T14:30:26.427Z,4.20
2022-10-11T14:33:00.446Z,3.47
2022-10-11T14:35:30.386Z,2.70
2022-10-11T14:37:58.080Z,3.87
2022-10-11T14:40:28.666Z,2.20
2022-10-11T14:42:56.684Z,2.57
2022-10-11T14:45:24.958Z,2.63
2022-10-11T14:47:52.871Z,2.60
2022-10-11T14:50:43.555Z,2.27
2022-10-11T14:53:12.789Z,2.80
2022-10-11T14:55:42.002Z,2.30
2022-10-11T14:58:11.031Z,2.90
2022-10-11T15:00:38.956Z,1.80
2022-10-11T15:03:07.174Z,2.60
2022-10-11T15:05:35.550Z,2.73
2022-10-11T15:08:05.354Z,2.63
2022-10-11T15:10:37.074Z,3.00
2022-10-11T15:13:06.942Z,4.80
2022-10-11T15:15:37.092Z,2.90
2022-10-11T15:18:07.178Z,1.90
2022-10-11T15:20:37.880Z,2.73
2022-10-11T15:23:09.472Z,2.30
2022-10-11T15:25:38.965Z,2.73
2022-10-11T15:28:07.468Z,2.80
2022-10-11T15:30:41.129Z,2.30
2022-10-11T15:33:09.436Z,2.37
2022-10-11T15:35:37.130Z,2.40
2022-10-11T15:38:06.347Z,2.70
2022-10-11T15:40:35.900Z,2.83
2022-10-11T15:43:04.085Z,2.80
2022-10-11T15:45:32.175Z,2.90
2022-10-11T15:48:00.140Z,3.80
2022-10-11T15:50:37.743Z,3.30
2022-10-11T15:53:08.719Z,4.10
2022-10-11T15:55:39.560Z,3.37
2022-10-11T15:58:08.063Z,3.50
2022-10-11T16:00:38.784Z,3.00
2022-10-11T16:03:07.138Z,3.47
2022-10-11T16:05:34.799Z,5.33
2022-10-11T16:08:02.507Z,4.23
2022-10-11T16:10:31.660Z,5.20
2022-10-11T16:12:59.437Z,9.40
2022-10-11T16:15:27.264Z,5.23
2022-10-11T16:17:57.908Z,4.33
2022-10-11T16:20:25.896Z,3.70
2022-10-11T16:22:55.771Z,3.90
2022-10-11T16:25:23.974Z,3.37
2022-10-11T16:27:53.519Z,3.60
2022-10-11T16:30:21.911Z,3.87
2022-10-11T16:32:49.712Z,4.93
2022-10-11T16:35:20.160Z,6.43
2022-10-11T16:37:48.159Z,6.83
2022-10-11T16:40:17.676Z,4.80
2022-10-11T16:42:46.783Z,4.83
2022-10-11T16:45:16.942Z,4.37
2022-10-11T16:47:45.455Z,4.70
2022-10-11T16:50:14.255Z,5.20
2022-10-11T16:52:42.012Z,6.40
2022-10-11T16:55:10.523Z,7.40
2022-10-11T16:57:38.839Z,6.80
2022-10-11T17:00:08.687Z,6.60
2022-10-11T17:02:37.847Z,5.03
2022-10-11T17:05:06.463Z,7.00
2022-10-11T17:07:34.604Z,7.47
2022-10-11T17:10:02.498Z,8.80
2022-10-11T17:12:31.910Z,6.53
2022-10-11T17:14:59.685Z,6.93
2022-10-11T17:17:28.007Z,7.53
2022-10-11T17:19:57.029Z,8.23
2022-10-11T17:22:25.609Z,8.80
2022-10-11T17:24:53.337Z,9.63
2022-10-11T17:27:21.139Z,8.87
2022-10-11T17:29:49.003Z,9.10
2022-10-11T17:32:16.725Z,9.17
2022-10-11T17:34:44.477Z,10.57
2022-10-11T17:37:13.535Z,9.03
2022-10-11T17:39:41.342Z,10.13
2022-10-11T17:42:09.277Z,11.53
2022-10-11T17:44:37.221Z,9.20
2022-10-11T17:47:05.101Z,9.93
2022-10-11T17:49:33.069Z,14.30
2022-10-11T17:52:01.070Z,11.97
2022-10-11T17:54:30.258Z,9.20
2022-10-11T17:56:59.046Z,10.47
2022-10-11T17:59:28.735Z,11.00
2022-10-11T18:01:57.319Z,10.90
2022-10-11T18:04:26.958Z,12.07
2022-10-11T18:06:55.883Z,11.20
2022-10-11T18:09:25.230Z,10.40
2022-10-11T18:11:54.947Z,10.00
2022-10-11T18:14:22.621Z,10.97
2022-10-11T18:16:50.380Z,10.20
2022-10-11T18:19:18.001Z,9.80
2022-10-11T18:21:45.811Z,14.13
2022-10-11T18:24:15.947Z,10.43
2022-10-11T18:26:44.602Z,11.67
2022-10-11T18:29:23.854Z,10.37
2022-10-11T18:31:51.625Z,11.90
2022-10-11T18:34:19.306Z,10.77
2022-10-11T18:36:47.433Z,21.97
2022-10-11T18:39:16.288Z,11.13
2022-10-11T18:41:44.954Z,10.80
2022-10-11T18:44:16.468Z,13.17
2022-10-11T18:46:45.176Z,13.40
2022-10-11T18:49:13.489Z,11.47
2022-10-11T18:51:42.957Z,11.57
2022-10-11T18:54:16.702Z,11.63
2022-10-11T18:56:47.914Z,10.30
2022-10-11T18:59:20.234Z,10.03
2022-10-11T19:01:52.456Z,9.40
2022-10-11T19:04:21.137Z,10.17
2022-10-11T19:06:50.507Z,10.33
2022-10-11T19:09:21.930Z,11.47
2022-10-11T19:11:51.269Z,9.63
2022-10-11T19:14:22.612Z,11.23
2022-10-11T19:16:52.218Z,9.63
2022-10-11T19:19:20.990Z,8.77
2022-10-11T19:21:49.549Z,10.80
2022-10-11T19:24:17.692Z,10.17
2022-10-11T19:26:46.284Z,11.27
2022-10-11T19:29:18.667Z,10.53
2022-10-11T19:31:49.838Z,10.40
2022-10-11T19:34:18.022Z,11.27
2022-10-11T19:36:46.160Z,12.73
2022-10-11T19:39:15.476Z,15.00
2022-10-11T19:41:43.879Z,11.00
2022-10-11T19:44:12.155Z,11.60
2022-10-11T19:46:55.391Z,11.97
2022-10-11T19:49:25.866Z,10.50
2022-10-11T19:51:55.220Z,11.47
2022-10-11T19:54:23.811Z,9.63
2022-10-11T19:56:51.557Z,10.17
2022-10-11T19:59:19.641Z,10.87
2022-10-11T20:01:52.470Z,12.17
2022-10-11T20:07:10.631Z,10.10
2022-10-11T20:09:38.341Z,8.87
2022-10-11T20:12:06.407Z,9.40
2022-10-11T20:14:34.117Z,11.03
2022-10-11T20:17:02.036Z,14.43
2022-10-11T20:19:31.538Z,22.37
2022-10-11T20:22:00.209Z,12.43
2022-10-11T20:24:33.494Z,11.37
2022-10-11T20:27:02.894Z,8.90
2022-10-11T20:29:31.009Z,7.53
2022-10-11T20:31:59.297Z,10.63
2022-10-11T20:34:28.250Z,7.87
2022-10-11T20:36:55.951Z,7.37
2022-10-11T20:39:23.687Z,7.73
2022-10-11T20:41:52.735Z,7.97
2022-10-11T20:44:20.391Z,10.00
2022-10-11T20:46:48.033Z,9.47
2022-10-11T20:49:15.622Z,9.43
2022-10-11T20:51:48.624Z,24.23
2022-10-11T20:54:16.576Z,9.73
2022-10-11T20:56:44.295Z,9.73
2022-10-11T20:59:13.329Z,8.40
2022-10-11T21:01:42.132Z,9.07
2022-10-11T21:04:19.325Z,9.03
2022-10-11T21:06:47.717Z,8.87
2022-10-11T21:09:17.016Z,9.63
2022-10-11T21:11:45.078Z,10.90
2022-10-11T21:14:14.260Z,10.50
2022-10-11T21:16:42.233Z,11.30
2022-10-11T21:19:14.972Z,20.13
2022-10-11T21:21:43.166Z,11.53
2022-10-11T21:24:11.191Z,10.90
2022-10-11T21:26:38.978Z,9.23
2022-10-11T21:29:07.557Z,9.93
2022-10-11T21:31:37.069Z,10.47
2022-10-11T21:34:07.301Z,11.40
2022-10-11T21:36:35.871Z,11.13
2022-10-11T21:39:03.696Z,11.97
2022-10-11T21:41:31.365Z,11.83
2022-10-11T21:44:04.417Z,11.67
2022-10-11T21:47:01.282Z,10.80
2022-10-11T21:49:21.603Z,11.90
2022-10-11T21:51:49.525Z,11.13
2022-10-11T21:54:17.852Z,10.97
2022-10-11T21:56:45.498Z,11.70
2022-10-11T21:59:13.327Z,10.37
2022-10-11T22:01:44.140Z,11.30
2022-10-11T22:04:12.502Z,10.23
2022-10-11T22:06:41.552Z,10.83
2022-10-11T22:09:09.382Z,9.93
2022-10-11T22:11:37.805Z,10.07
2022-10-11T22:14:05.915Z,11.07
2022-10-11T22:16:34.610Z,9.87
2022-10-11T22:19:02.480Z,10.27
2022-10-11T22:21:30.209Z,10.63
2022-10-11T22:23:59.215Z,10.40
2022-10-11T22:26:29.843Z,11.73
2022-10-11T22:28:57.822Z,12.23
2022-10-11T22:31:25.707Z,11.47
2022-10-11T22:33:54.885Z,11.13
2022-10-11T22:36:24.625Z,10.57
2022-10-11T22:38:53.364Z,12.50
2022-10-11T22:41:22.513Z,11.83
2022-10-11T22:43:50.422Z,10.43
2022-10-11T22:46:18.566Z,10.90
2022-10-11T22:48:46.252Z,11.87
2022-10-11T22:51:15.657Z,10.93
2022-10-11T22:53:46.303Z,10.43
2022-10-11T22:56:15.791Z,10.23
2022-10-11T22:58:45.417Z,10.00
2022-10-11T23:01:15.501Z,11.13
2022-10-11T23:03:48.601Z,10.20
2022-10-11T23:06:16.400Z,9.73
2022-10-11T23:08:44.439Z,9.70
2022-10-11T23:11:12.765Z,10.60
2022-10-11T23:13:40.524Z,10.27
2022-10-11T23:16:14.420Z,10.50
2022-10-11T23:18:44.786Z,10.17
2022-10-11T23:21:13.210Z,10.13
2022-10-11T23:23:41.272Z,10.90
2022-10-11T23:26:13.043Z,10.50
2022-10-11T23:28:41.130Z,10.50
2022-10-11T23:31:16.510Z,9.47
2022-10-11T23:33:44.275Z,11.00
2022-10-11T23:36:16.412Z,10.57
2022-10-11T23:38:44.390Z,10.30
2022-10-11T23:41:15.191Z,9.63
2022-10-11T23:43:42.919Z,10.50
2022-10-11T23:46:14.142Z,9.63
2022-10-11T23:48:41.958Z,9.60
2022-10-11T23:51:10.944Z,9.37
2022-10-11T23:53:39.094Z,9.30
2022-10-11T23:56:08.838Z,9.10
2022-10-11T23:58:36.548Z,9.03
